Terminal Aerodrome Forecast
Issued by NWS

Home | Current Version | Previous Version | Text Only | Print | Product List | Glossary On
Versions: 1 2 3 4 5 6 7 8 9 10 11 12 13 14 15 16 17 18 19 20 21 22 23 24 25 26 27 28
803
FTUS41 KOKX 292140 AAB
TAFSWF
TAF AMD
KSWF 292140Z 2922/3024 04005KT P6SM FEW060 SCT120
     FM300100 VRB03KT P6SM FEW120 SCT250
     FM301100 08005KT P6SM SCT050 BKN120
     FM301600 12005KT P6SM BKN050 BKN120
     FM302000 16005KT P6SM BKN040 BKN070 PROB30 3020/3024 4SM -SHRA
      BKN040
      AMD NOT SKED=

USA.gov is the U.S. government's official web portal to all federal, state and local government web resources and services.